sensor_id;sensor_type;location;lat;lon;timestamp;pressure;altitude;pressure_sealevel;temperature;humidity
7614;BME280;3848;42.016;23.098;2023-01-27T00:01:15;96257.47;;;2.30;100.00
7614;BME280;3848;42.016;23.098;2023-01-27T00:03:44;96267.44;;;2.29;100.00
7614;BME280;3848;42.016;23.098;2023-01-27T00:06:11;96269.22;;;2.37;100.00
7614;BME280;3848;42.016;23.098;2023-01-27T00:08:37;96260.03;;;2.38;100.00
7614;BME280;3848;42.016;23.098;2023-01-27T00:11:04;96265.09;;;2.44;100.00
7614;BME280;3848;42.016;23.098;2023-01-27T00:13:48;96256.75;;;2.45;100.00
7614;BME280;3848;42.016;23.098;2023-01-27T00:16:15;96257.56;;;2.41;100.00
7614;BME280;3848;42.016;23.098;2023-01-27T00:18:42;96259.28;;;2.47;100.00
7614;BME280;3848;42.016;23.098;2023-01-27T00:21:10;96268.47;;;2.48;100.00
7614;BME280;3848;42.016;23.098;2023-01-27T00:23:54;96262.56;;;2.42;100.00
7614;BME280;3848;42.016;23.098;2023-01-27T00:26:52;96268.41;;;2.41;100.00
7614;BME280;3848;42.016;23.098;2023-01-27T00:29:19;96273.47;;;2.46;100.00
7614;BME280;3848;42.016;23.098;2023-01-27T00:31:46;96245.78;;;2.29;100.00
7614;BME280;3848;42.016;23.098;2023-01-27T00:34:30;96255.72;;;2.23;100.00
7614;BME280;3848;42.016;23.098;2023-01-27T00:36:59;96280.88;;;2.31;100.00
7614;BME280;3848;42.016;23.098;2023-01-27T00:39:25;96280.75;;;2.23;100.00
7614;BME280;3848;42.016;23.098;2023-01-27T00:41:52;96281.56;;;2.21;100.00
7614;BME280;3848;42.016;23.098;2023-01-27T00:44:19;96280.75;;;2.22;100.00
7614;BME280;3848;42.016;23.098;2023-01-27T00:46:48;96283.38;;;2.31;100.00
7614;BME280;3848;42.016;23.098;2023-01-27T00:49:15;96285.00;;;2.29;100.00
7614;BME280;3848;42.016;23.098;2023-01-27T00:51:43;96276.59;;;2.25;100.00
7614;BME280;3848;42.016;23.098;2023-01-27T00:54:11;96295.00;;;2.27;100.00
7614;BME280;3848;42.016;23.098;2023-01-27T00:56:39;96294.09;;;2.19;100.00
7614;BME280;3848;42.016;23.098;2023-01-27T00:59:06;96297.34;;;2.09;100.00
7614;BME280;3848;42.016;23.098;2023-01-27T01:01:33;96274.66;;;1.98;100.00
7614;BME280;3848;42.016;23.098;2023-01-27T01:04:00;96278.88;;;2.04;100.00
7614;BME280;3848;42.016;23.098;2023-01-27T01:06:27;96283.88;;;2.01;100.00
7614;BME280;3848;42.016;23.098;2023-01-27T01:08:55;96294.72;;;2.01;100.00
7614;BME280;3848;42.016;23.098;2023-01-27T01:11:24;96283.03;;;2.00;100.00
7614;BME280;3848;42.016;23.098;2023-01-27T01:13:51;96288.97;;;2.08;100.00
7614;BME280;3848;42.016;23.098;2023-01-27T01:16:19;96269.81;;;2.12;100.00
7614;BME280;3848;42.016;23.098;2023-01-27T01:18:47;96272.34;;;2.15;100.00
7614;BME280;3848;42.016;23.098;2023-01-27T01:21:14;96274.88;;;2.18;100.00
7614;BME280;3848;42.016;23.098;2023-01-27T01:23:43;96278.22;;;2.19;100.00
7614;BME280;3848;42.016;23.098;2023-01-27T01:26:11;96265.69;;;2.17;100.00
7614;BME280;3848;42.016;23.098;2023-01-27T01:28:40;96267.41;;;2.24;100.00
7614;BME280;3848;42.016;23.098;2023-01-27T01:31:08;96252.31;;;2.18;100.00
7614;BME280;3848;42.016;23.098;2023-01-27T01:33:35;96270.75;;;2.23;100.00
7614;BME280;3848;42.016;23.098;2023-01-27T01:36:04;96267.34;;;2.18;100.00
7614;BME280;3848;42.016;23.098;2023-01-27T01:38:31;96250.66;;;2.19;100.00
7614;BME280;3848;42.016;23.098;2023-01-27T01:40:57;96242.31;;;2.21;100.00
7614;BME280;3848;42.016;23.098;2023-01-27T01:43:24;96234.81;;;2.23;100.00
7614;BME280;3848;42.016;23.098;2023-01-27T01:45:55;96221.47;;;2.25;100.00
7614;BME280;3848;42.016;23.098;2023-01-27T01:48:30;96205.56;;;2.20;100.00
7614;BME280;3848;42.016;23.098;2023-01-27T01:51:02;96205.66;;;2.29;100.00
7614;BME280;3848;42.016;23.098;2023-01-27T01:53:36;96212.44;;;2.41;100.00
7614;BME280;3848;42.016;23.098;2023-01-27T01:56:08;96204.06;;;2.37;100.00
7614;BME280;3848;42.016;23.098;2023-01-27T01:58:37;96204.03;;;2.36;100.00
7614;BME280;3848;42.016;23.098;2023-01-27T02:01:06;96214.09;;;2.40;100.00
7614;BME280;3848;42.016;23.098;2023-01-27T02:03:34;96222.44;;;2.36;100.00
7614;BME280;3848;42.016;23.098;2023-01-27T02:06:04;96224.91;;;2.33;100.00
7614;BME280;3848;42.016;23.098;2023-01-27T02:08:35;96229.09;;;2.36;100.00
7614;BME280;3848;42.016;23.098;2023-01-27T02:11:04;96236.63;;;2.36;100.00
7614;BME280;3848;42.016;23.098;2023-01-27T02:13:31;96232.44;;;2.33;100.00
7614;BME280;3848;42.016;23.098;2023-01-27T02:15:58;96229.13;;;2.37;100.00
7614;BME280;3848;42.016;23.098;2023-01-27T02:18:26;96228.28;;;2.35;100.00
7614;BME280;3848;42.016;23.098;2023-01-27T02:20:53;96235.81;;;2.38;100.00
7614;BME280;3848;42.016;23.098;2023-01-27T02:23:31;96236.69;;;2.42;100.00
7614;BME280;3848;42.016;23.098;2023-01-27T02:26:04;96215.69;;;2.29;100.00
7614;BME280;3848;42.016;23.098;2023-01-27T02:28:33;96233.31;;;2.40;100.00
7614;BME280;3848;42.016;23.098;2023-01-27T02:31:00;96241.66;;;2.37;100.00
7614;BME280;3848;42.016;23.098;2023-01-27T02:33:27;96239.13;;;2.36;100.00
7614;BME280;3848;42.016;23.098;2023-01-27T02:35:57;96208.97;;;2.28;100.00
7614;BME280;3848;42.016;23.098;2023-01-27T02:38:28;96214.06;;;2.36;100.00
7614;BME280;3848;42.016;23.098;2023-01-27T02:40:59;96210.72;;;2.34;100.00
7614;BME280;3848;42.016;23.098;2023-01-27T02:43:30;96190.59;;;2.28;100.00
7614;BME280;3848;42.016;23.098;2023-01-27T02:45:57;96204.94;;;2.44;100.00
7614;BME280;3848;42.016;23.098;2023-01-27T02:48:24;96203.34;;;2.51;100.00
7614;BME280;3848;42.016;23.098;2023-01-27T02:50:50;96200.88;;;2.55;100.00
7614;BME280;3848;42.016;23.098;2023-01-27T02:53:17;96190.84;;;2.57;100.00
7614;BME280;3848;42.016;23.098;2023-01-27T02:55:44;96185.84;;;2.57;100.00
7614;BME280;3848;42.016;23.098;2023-01-27T02:58:11;96180.81;;;2.57;100.00
7614;BME280;3848;42.016;23.098;2023-01-27T03:00:44;96174.97;;;2.59;100.00
7614;BME280;3848;42.016;23.098;2023-01-27T03:03:11;96162.41;;;2.50;100.00
7614;BME280;3848;42.016;23.098;2023-01-27T03:05:38;96145.56;;;2.37;100.00
7614;BME280;3848;42.016;23.098;2023-01-27T03:08:05;96158.19;;;2.49;100.00
7614;BME280;3848;42.016;23.098;2023-01-27T03:10:32;96161.50;;;2.48;100.00
7614;BME280;3848;42.016;23.098;2023-01-27T03:12:59;96149.75;;;2.39;100.00
7614;BME280;3848;42.016;23.098;2023-01-27T03:15:26;96147.16;;;2.29;100.00
7614;BME280;3848;42.016;23.098;2023-01-27T03:18:11;96142.13;;;2.27;100.00
7614;BME280;3848;42.016;23.098;2023-01-27T03:20:41;96151.38;;;2.30;100.00
7614;BME280;3848;42.016;23.098;2023-01-27T03:23:09;96142.94;;;2.23;100.00
7614;BME280;3848;42.016;23.098;2023-01-27T03:25:39;96149.72;;;2.30;100.00
7614;BME280;3848;42.016;23.098;2023-01-27T03:28:06;96138.78;;;2.25;100.00
7614;BME280;3848;42.016;23.098;2023-01-27T03:30:33;96136.28;;;2.27;100.00
7614;BME280;3848;42.016;23.098;2023-01-27T03:33:00;96135.44;;;2.26;100.00
7614;BME280;3848;42.016;23.098;2023-01-27T03:35:29;96139.63;;;2.26;100.00
7614;BME280;3848;42.016;23.098;2023-01-27T03:38:04;96136.19;;;2.13;100.00
7614;BME280;3848;42.016;23.098;2023-01-27T03:40:48;96163.78;;;2.16;100.00
7614;BME280;3848;42.016;23.098;2023-01-27T03:43:33;96158.75;;;2.16;100.00
7614;BME280;3848;42.016;23.098;2023-01-27T03:46:17;96157.09;;;2.15;100.00
7614;BME280;3848;42.016;23.098;2023-01-27T03:48:47;96162.06;;;2.10;100.00
7614;BME280;3848;42.016;23.098;2023-01-27T03:51:17;96162.00;;;2.04;100.00
7614;BME280;3848;42.016;23.098;2023-01-27T03:53:45;96167.84;;;2.05;100.00
7614;BME280;3848;42.016;23.098;2023-01-27T03:56:13;96176.16;;;2.02;100.00
7614;BME280;3848;42.016;23.098;2023-01-27T03:58:41;96170.31;;;2.02;100.00
7614;BME280;3848;42.016;23.098;2023-01-27T04:01:13;96188.69;;;2.04;100.00
7614;BME280;3848;42.016;23.098;2023-01-27T04:03:40;96202.84;;;1.99;100.00
7614;BME280;3848;42.016;23.098;2023-01-27T04:06:27;96199.47;;;1.95;100.00
7614;BME280;3848;42.016;23.098;2023-01-27T04:09:16;96210.38;;;1.99;100.00
7614;BME280;3848;42.016;23.098;2023-01-27T04:11:43;96189.44;;;1.94;100.00
7614;BME280;3848;42.016;23.098;2023-01-27T04:14:26;96207.09;;;2.06;100.00
7614;BME280;3848;42.016;23.098;2023-01-27T04:16:54;96185.38;;;2.05;100.00
7614;BME280;3848;42.016;23.098;2023-01-27T04:19:21;96192.88;;;2.05;100.00
7614;BME280;3848;42.016;23.098;2023-01-27T04:21:50;96186.25;;;2.08;100.00
7614;BME280;3848;42.016;23.098;2023-01-27T04:24:17;96178.72;;;2.07;100.00
7614;BME280;3848;42.016;23.098;2023-01-27T04:26:51;96188.72;;;2.07;100.00
7614;BME280;3848;42.016;23.098;2023-01-27T04:29:19;96178.78;;;2.11;100.00
7614;BME280;3848;42.016;23.098;2023-01-27T04:31:46;96150.31;;;2.05;100.00
7614;BME280;3848;42.016;23.098;2023-01-27T04:34:13;96149.56;;;2.12;100.00
7614;BME280;3848;42.016;23.098;2023-01-27T04:36:40;96160.34;;;2.08;100.00
7614;BME280;3848;42.016;23.098;2023-01-27T04:39:09;96181.28;;;2.13;100.00
7614;BME280;3848;42.016;23.098;2023-01-27T04:41:36;96181.31;;;2.18;100.00
7614;BME280;3848;42.016;23.098;2023-01-27T04:44:03;96175.47;;;2.16;100.00
7614;BME280;3848;42.016;23.098;2023-01-27T04:46:31;96184.63;;;2.12;100.00
7614;BME280;3848;42.016;23.098;2023-01-27T04:48:58;96176.19;;;2.05;100.00
7614;BME280;3848;42.016;23.098;2023-01-27T04:51:25;96170.47;;;2.17;100.00
7614;BME280;3848;42.016;23.098;2023-01-27T04:53:52;96162.97;;;2.19;100.00
7614;BME280;3848;42.016;23.098;2023-01-27T04:56:28;96181.34;;;2.22;100.00
7614;BME280;3848;42.016;23.098;2023-01-27T04:58:57;96187.16;;;2.15;100.00
7614;BME280;3848;42.016;23.098;2023-01-27T05:01:24;96189.69;;;2.21;100.00
7614;BME280;3848;42.016;23.098;2023-01-27T05:03:51;96194.75;;;2.24;100.00
7614;BME280;3848;42.016;23.098;2023-01-27T05:06:18;96203.94;;;2.25;100.00
7614;BME280;3848;42.016;23.098;2023-01-27T05:08:45;96217.28;;;2.24;100.00
7614;BME280;3848;42.016;23.098;2023-01-27T05:11:12;96206.41;;;2.22;100.00
7614;BME280;3848;42.016;23.098;2023-01-27T05:13:41;96193.88;;;2.21;100.00
7614;BME280;3848;42.016;23.098;2023-01-27T05:16:10;96189.69;;;2.21;100.00
7614;BME280;3848;42.016;23.098;2023-01-27T05:18:38;96195.66;;;2.29;100.00
7614;BME280;3848;42.016;23.098;2023-01-27T05:21:06;96212.16;;;2.09;100.00
7614;BME280;3848;42.016;23.098;2023-01-27T05:23:33;96203.47;;;1.78;100.00
7614;BME280;3848;42.016;23.098;2023-01-27T05:26:02;96213.28;;;1.61;100.00
7614;BME280;3848;42.016;23.098;2023-01-27T05:28:29;96227.41;;;1.56;100.00
7614;BME280;3848;42.016;23.098;2023-01-27T05:31:01;96219.00;;;1.48;100.00
7614;BME280;3848;42.016;23.098;2023-01-27T05:33:28;96212.38;;;1.55;100.00
7614;BME280;3848;42.016;23.098;2023-01-27T05:35:57;96217.47;;;1.64;100.00
7614;BME280;3848;42.016;23.098;2023-01-27T05:38:24;96216.69;;;1.66;100.00
7614;BME280;3848;42.016;23.098;2023-01-27T05:40:54;96202.53;;;1.68;100.00
7614;BME280;3848;42.016;23.098;2023-01-27T05:43:21;96206.00;;;1.82;100.00
7614;BME280;3848;42.016;23.098;2023-01-27T05:45:48;96214.41;;;1.86;100.00
7614;BME280;3848;42.016;23.098;2023-01-27T05:48:16;96223.72;;;1.99;100.00
7614;BME280;3848;42.016;23.098;2023-01-27T05:50:53;96215.38;;;1.97;100.00
7614;BME280;3848;42.016;23.098;2023-01-27T05:53:20;96208.56;;;1.87;100.00
7614;BME280;3848;42.016;23.098;2023-01-27T05:55:47;96198.50;;;1.82;100.00
7614;BME280;3848;42.016;23.098;2023-01-27T05:58:14;96200.03;;;1.68;100.00
7614;BME280;3848;42.016;23.098;2023-01-27T06:00:41;96211.63;;;1.63;100.00
7614;BME280;3848;42.016;23.098;2023-01-27T06:03:07;96217.63;;;1.76;100.00
7614;BME280;3848;42.016;23.098;2023-01-27T06:05:35;96214.34;;;1.80;100.00
7614;BME280;3848;42.016;23.098;2023-01-27T06:08:02;96223.56;;;1.86;100.00
7614;BME280;3848;42.016;23.098;2023-01-27T06:10:29;96222.84;;;1.93;100.00
7614;BME280;3848;42.016;23.098;2023-01-27T06:12:56;96229.56;;;1.98;100.00
7614;BME280;3848;42.016;23.098;2023-01-27T06:15:23;96220.38;;;1.99;100.00
7614;BME280;3848;42.016;23.098;2023-01-27T06:17:50;96217.09;;;2.03;100.00
7614;BME280;3848;42.016;23.098;2023-01-27T06:20:16;96210.41;;;2.05;100.00
7614;BME280;3848;42.016;23.098;2023-01-27T06:22:45;96214.66;;;2.09;100.00
7614;BME280;3848;42.016;23.098;2023-01-27T06:25:12;96220.47;;;2.08;100.00
7614;BME280;3848;42.016;23.098;2023-01-27T06:27:38;96238.75;;;1.98;100.00
7614;BME280;3848;42.016;23.098;2023-01-27T06:30:06;96243.94;;;2.13;100.00
7614;BME280;3848;42.016;23.098;2023-01-27T06:32:34;96236.31;;;2.07;100.00
7614;BME280;3848;42.016;23.098;2023-01-27T06:35:01;96216.19;;;1.98;100.00
7614;BME280;3848;42.016;23.098;2023-01-27T06:37:28;96232.97;;;2.05;100.00
7614;BME280;3848;42.016;23.098;2023-01-27T06:39:56;96230.44;;;2.02;100.00
7614;BME280;3848;42.016;23.098;2023-01-27T06:42:23;96232.75;;;1.83;100.00
7614;BME280;3848;42.016;23.098;2023-01-27T06:44:50;96233.53;;;1.81;100.00
7614;BME280;3848;42.016;23.098;2023-01-27T06:47:16;96234.41;;;1.83;100.00
7614;BME280;3848;42.016;23.098;2023-01-27T06:49:43;96225.22;;;1.83;100.00
7614;BME280;3848;42.016;23.098;2023-01-27T06:52:10;96226.91;;;1.86;100.00
7614;BME280;3848;42.016;23.098;2023-01-27T06:54:37;96240.34;;;1.91;100.00
7614;BME280;3848;42.016;23.098;2023-01-27T06:57:07;96238.72;;;1.95;100.00
7614;BME280;3848;42.016;23.098;2023-01-27T06:59:34;96223.69;;;1.95;100.00
7614;BME280;3848;42.016;23.098;2023-01-27T07:02:02;96240.44;;;1.99;100.00
7614;BME280;3848;42.016;23.098;2023-01-27T07:04:28;96229.53;;;1.95;100.00
7614;BME280;3848;42.016;23.098;2023-01-27T07:06:55;96227.88;;;1.94;100.00
7614;BME280;3848;42.016;23.098;2023-01-27T07:09:22;96226.09;;;1.87;100.00
7614;BME280;3848;42.016;23.098;2023-01-27T07:11:49;96230.38;;;1.94;100.00
7614;BME280;3848;42.016;23.098;2023-01-27T07:14:17;96225.16;;;1.77;100.00
7614;BME280;3848;42.016;23.098;2023-01-27T07:16:44;96233.53;;;1.81;100.00
7614;BME280;3848;42.016;23.098;2023-01-27T07:19:11;96230.19;;;1.79;100.00
7614;BME280;3848;42.016;23.098;2023-01-27T07:21:38;96213.66;;;1.92;100.00
7614;BME280;3848;42.016;23.098;2023-01-27T07:24:05;96177.53;;;1.70;100.00
7614;BME280;3848;42.016;23.098;2023-01-27T07:26:32;96234.41;;;1.84;100.00
7614;BME280;3848;42.016;23.098;2023-01-27T07:28:59;96230.38;;;1.96;100.00
7614;BME280;3848;42.016;23.098;2023-01-27T07:31:27;96243.78;;;2.01;100.00
7614;BME280;3848;42.016;23.098;2023-01-27T07:33:54;96249.63;;;2.01;100.00
7614;BME280;3848;42.016;23.098;2023-01-27T07:36:21;96248.94;;;2.13;100.00
7614;BME280;3848;42.016;23.098;2023-01-27T07:38:48;96240.56;;;2.11;100.00
7614;BME280;3848;42.016;23.098;2023-01-27T07:41:16;96240.66;;;2.20;100.00
7614;BME280;3848;42.016;23.098;2023-01-27T07:43:43;96229.06;;;2.31;100.00
7614;BME280;3848;42.016;23.098;2023-01-27T07:46:10;96218.22;;;2.34;100.00
7614;BME280;3848;42.016;23.098;2023-01-27T07:48:38;96190.63;;;2.29;100.00
7614;BME280;3848;42.016;23.098;2023-01-27T07:51:05;96209.13;;;2.47;100.00
7614;BME280;3848;42.016;23.098;2023-01-27T07:53:31;96209.13;;;2.47;100.00
7614;BME280;3848;42.016;23.098;2023-01-27T07:55:58;96197.28;;;2.27;100.00
7614;BME280;3848;42.016;23.098;2023-01-27T07:58:25;96207.44;;;2.44;100.00
7614;BME280;3848;42.016;23.098;2023-01-27T08:00:52;96215.78;;;2.40;100.00
7614;BME280;3848;42.016;23.098;2023-01-27T08:03:21;96215.94;;;2.60;100.00
7614;BME280;3848;42.016;23.098;2023-01-27T08:05:53;96217.50;;;2.47;100.00
7614;BME280;3848;42.016;23.098;2023-01-27T08:08:19;96231.50;;;2.24;100.00
7614;BME280;3848;42.016;23.098;2023-01-27T08:10:46;96235.56;;;2.11;100.00
7614;BME280;3848;42.016;23.098;2023-01-27T08:13:15;96234.53;;;1.94;100.00
7614;BME280;3848;42.016;23.098;2023-01-27T08:15:42;96237.88;;;1.94;100.00
7614;BME280;3848;42.016;23.098;2023-01-27T08:18:10;96243.75;;;1.98;100.00
7614;BME280;3848;42.016;23.098;2023-01-27T08:20:36;96237.09;;;2.00;100.00
7614;BME280;3848;42.016;23.098;2023-01-27T08:23:05;96228.78;;;2.02;100.00
7614;BME280;3848;42.016;23.098;2023-01-27T08:25:31;96215.34;;;1.96;100.00
7614;BME280;3848;42.016;23.098;2023-01-27T08:27:58;96215.44;;;2.05;100.00
7614;BME280;3848;42.016;23.098;2023-01-27T08:30:25;96213.56;;;1.87;100.00
7614;BME280;3848;42.016;23.098;2023-01-27T08:32:52;96221.97;;;1.89;100.00
7614;BME280;3848;42.016;23.098;2023-01-27T08:35:19;96206.25;;;2.07;100.00
7614;BME280;3848;42.016;23.098;2023-01-27T08:37:46;96205.53;;;2.14;100.00
7614;BME280;3848;42.016;23.098;2023-01-27T08:40:15;96209.72;;;2.18;100.00
7614;BME280;3848;42.016;23.098;2023-01-27T08:42:43;96220.56;;;2.17;100.00
7614;BME280;3848;42.016;23.098;2023-01-27T08:45:10;96222.13;;;2.06;100.00
7614;BME280;3848;42.016;23.098;2023-01-27T08:47:37;96230.50;;;2.08;100.00
7614;BME280;3848;42.016;23.098;2023-01-27T08:50:04;96219.63;;;2.06;100.00
7614;BME280;3848;42.016;23.098;2023-01-27T08:52:31;96205.97;;;1.76;100.00
7614;BME280;3848;42.016;23.098;2023-01-27T08:54:57;96218.69;;;1.95;100.00
7614;BME280;3848;42.016;23.098;2023-01-27T08:57:26;96220.38;;;1.99;100.00
7614;BME280;3848;42.016;23.098;2023-01-27T08:59:56;96225.41;;;1.99;100.00
7614;BME280;3848;42.016;23.098;2023-01-27T09:02:23;96213.75;;;2.04;100.00
7614;BME280;3848;42.016;23.098;2023-01-27T09:04:51;96214.75;;;2.18;100.00
7614;BME280;3848;42.016;23.098;2023-01-27T09:07:18;96213.78;;;2.07;100.00
7614;BME280;3848;42.016;23.098;2023-01-27T09:09:45;96195.47;;;2.11;100.00
7614;BME280;3848;42.016;23.098;2023-01-27T09:12:12;96213.16;;;2.28;100.00
7614;BME280;3848;42.016;23.098;2023-01-27T09:14:40;96197.19;;;2.15;100.00
7614;BME280;3848;42.016;23.098;2023-01-27T09:17:07;96203.97;;;2.28;100.00
7614;BME280;3848;42.016;23.098;2023-01-27T09:19:34;96218.97;;;2.25;100.00
7614;BME280;3848;42.016;23.098;2023-01-27T09:22:01;96213.94;;;2.24;100.00
7614;BME280;3848;42.016;23.098;2023-01-27T09:24:29;96211.63;;;2.43;100.00
7614;BME280;3848;42.016;23.098;2023-01-27T09:26:56;96214.22;;;2.54;100.00
7614;BME280;3848;42.016;23.098;2023-01-27T09:29:23;96213.41;;;2.54;100.00
7614;BME280;3848;42.016;23.098;2023-01-27T09:31:52;96210.03;;;2.52;100.00
7614;BME280;3848;42.016;23.098;2023-01-27T09:34:18;96198.25;;;2.43;100.00
7614;BME280;3848;42.016;23.098;2023-01-27T09:36:49;96201.63;;;2.50;100.00
7614;BME280;3848;42.016;23.098;2023-01-27T09:39:17;96205.09;;;2.64;100.00
7614;BME280;3848;42.016;23.098;2023-01-27T09:41:58;96203.44;;;2.66;100.00
7614;BME280;3848;42.016;23.098;2023-01-27T09:44:51;96196.72;;;2.62;100.00
7614;BME280;3848;42.016;23.098;2023-01-27T09:47:38;96209.22;;;2.53;100.00
7614;BME280;3848;42.016;23.098;2023-01-27T09:56:27;96200.13;;;2.68;100.00
7614;BME280;3848;42.016;23.098;2023-01-27T09:59:07;96196.69;;;2.57;100.00
7614;BME280;3848;42.016;23.098;2023-01-27T10:01:45;96195.97;;;2.72;100.00
7614;BME280;3848;42.016;23.098;2023-01-27T10:04:32;96185.13;;;2.76;100.00
7614;BME280;3848;42.016;23.098;2023-01-27T10:07:16;96186.81;;;2.75;100.00
7614;BME280;3848;42.016;23.098;2023-01-27T10:09:59;96172.66;;;2.85;100.00
7614;BME280;3848;42.016;23.098;2023-01-27T10:12:47;96171.00;;;2.90;100.00
7614;BME280;3848;42.016;23.098;2023-01-27T10:15:29;96168.56;;;3.02;100.00
7614;BME280;3848;42.016;23.098;2023-01-27T10:18:11;96161.00;;;2.95;100.00
7614;BME280;3848;42.016;23.098;2023-01-27T10:20:46;96166.06;;;2.99;100.00
7614;BME280;3848;42.016;23.098;2023-01-27T10:23:26;96166.06;;;3.05;100.00
7614;BME280;3848;42.016;23.098;2023-01-27T10:26:04;96154.44;;;3.14;100.00
7614;BME280;3848;42.016;23.098;2023-01-27T10:28:36;96151.94;;;3.21;100.00
7614;BME280;3848;42.016;23.098;2023-01-27T10:31:07;96162.91;;;3.37;100.00
7614;BME280;3848;42.016;23.098;2023-01-27T10:33:44;96167.91;;;3.34;100.00
7614;BME280;3848;42.016;23.098;2023-01-27T10:36:23;96158.66;;;3.30;100.00
7614;BME280;3848;42.016;23.098;2023-01-27T10:39:02;96151.13;;;3.24;100.00
7614;BME280;3848;42.016;23.098;2023-01-27T10:41:40;96153.69;;;3.39;100.00
7614;BME280;3848;42.016;23.098;2023-01-27T10:44:20;96155.34;;;3.35;100.00
7614;BME280;3848;42.016;23.098;2023-01-27T10:46:53;96142.81;;;3.37;100.00
7614;BME280;3848;42.016;23.098;2023-01-27T10:49:28;96132.78;;;3.46;100.00
7614;BME280;3848;42.016;23.098;2023-01-27T10:52:01;96141.22;;;3.57;100.00
7614;BME280;3848;42.016;23.098;2023-01-27T10:54:32;96137.88;;;3.58;100.00
7614;BME280;3848;42.016;23.098;2023-01-27T10:57:05;96136.19;;;3.54;100.00
7614;BME280;3848;42.016;23.098;2023-01-27T10:59:38;96125.25;;;3.52;100.00
7614;BME280;3848;42.016;23.098;2023-01-27T11:02:24;96133.69;;;3.66;100.00
7614;BME280;3848;42.016;23.098;2023-01-27T11:04:57;96128.66;;;3.74;100.00
7614;BME280;3848;42.016;23.098;2023-01-27T11:07:27;96127.88;;;3.89;100.00
7614;BME280;3848;42.016;23.098;2023-01-27T11:09:58;96120.34;;;3.81;100.00
7614;BME280;3848;42.016;23.098;2023-01-27T11:12:29;96118.63;;;3.68;100.00
7614;BME280;3848;42.016;23.098;2023-01-27T11:14:58;96116.94;;;3.64;100.00
7614;BME280;3848;42.016;23.098;2023-01-27T11:17:30;96119.47;;;3.72;100.00
7614;BME280;3848;42.016;23.098;2023-01-27T11:20:03;96110.25;;;3.71;100.00
7614;BME280;3848;42.016;23.098;2023-01-27T11:22:36;96114.47;;;3.81;100.00
7614;BME280;3848;42.016;23.098;2023-01-27T11:25:16;96109.44;;;3.82;100.00
7614;BME280;3848;42.016;23.098;2023-01-27T11:27:57;96096.03;;;3.82;100.00
7614;BME280;3848;42.016;23.098;2023-01-27T11:30:32;96101.06;;;3.85;100.00
7614;BME280;3848;42.016;23.098;2023-01-27T11:33:05;96098.59;;;3.98;100.00
7614;BME280;3848;42.016;23.098;2023-01-27T11:35:36;96105.25;;;4.15;100.00
7614;BME280;3848;42.016;23.098;2023-01-27T11:38:12;96101.94;;;4.08;100.00
7614;BME280;3848;42.016;23.098;2023-01-27T11:40:40;96109.47;;;4.14;100.00
7614;BME280;3848;42.016;23.098;2023-01-27T11:43:10;96109.47;;;4.17;100.00
7614;BME280;3848;42.016;23.098;2023-01-27T11:45:40;96106.13;;;4.24;100.00
7614;BME280;3848;42.016;23.098;2023-01-27T11:48:11;96104.44;;;4.25;100.00
7614;BME280;3848;42.016;23.098;2023-01-27T11:50:41;96106.13;;;4.40;100.00
7614;BME280;3848;42.016;23.098;2023-01-27T11:53:16;96102.75;;;4.32;100.00
7614;BME280;3848;42.016;23.098;2023-01-27T11:55:49;96096.88;;;4.36;100.00
7614;BME280;3848;42.016;23.098;2023-01-27T11:58:22;96102.75;;;4.35;100.00
7614;BME280;3848;42.016;23.098;2023-01-27T12:00:54;96060.03;;;4.06;100.00
7614;BME280;3848;42.016;23.098;2023-01-27T12:03:27;96101.94;;;4.25;100.00
7614;BME280;3848;42.016;23.098;2023-01-27T12:06:01;96097.72;;;4.16;100.00
7614;BME280;3848;42.016;23.098;2023-01-27T12:08:42;96096.91;;;4.07;100.00
7614;BME280;3848;42.016;23.098;2023-01-27T12:11:17;96092.72;;;4.04;100.00
7614;BME280;3848;42.016;23.098;2023-01-27T12:13:49;96035.75;;;3.79;100.00
7614;BME280;3848;42.016;23.098;2023-01-27T12:16:17;96087.69;;;4.06;100.00
7614;BME280;3848;42.016;23.098;2023-01-27T12:18:51;96097.72;;;3.95;100.00
7614;BME280;3848;42.016;23.098;2023-01-27T12:21:19;96092.72;;;3.96;100.00
7614;BME280;3848;42.016;23.098;2023-01-27T12:23:51;96086.84;;;4.07;100.00
7614;BME280;3848;42.016;23.098;2023-01-27T12:26:30;96095.19;;;3.92;100.00
7614;BME280;3848;42.016;23.098;2023-01-27T12:29:03;96085.16;;;3.77;100.00
7614;BME280;3848;42.016;23.098;2023-01-27T12:31:32;96084.31;;;3.82;100.00
7614;BME280;3848;42.016;23.098;2023-01-27T12:34:19;96064.19;;;3.65;100.00
7614;BME280;3848;42.016;23.098;2023-01-27T12:36:49;96087.66;;;3.78;100.00
7614;BME280;3848;42.016;23.098;2023-01-27T12:39:32;96088.47;;;3.63;100.00
7614;BME280;3848;42.016;23.098;2023-01-27T12:42:00;96089.31;;;3.59;100.00
7614;BME280;3848;42.016;23.098;2023-01-27T12:44:39;96085.13;;;3.69;100.00
7614;BME280;3848;42.016;23.098;2023-01-27T12:47:19;96074.25;;;3.58;100.00
7614;BME280;3848;42.016;23.098;2023-01-27T12:49:49;96059.97;;;3.43;100.00
7614;BME280;3848;42.016;23.098;2023-01-27T12:52:18;96062.50;;;3.43;100.00
7614;BME280;3848;42.016;23.098;2023-01-27T12:54:47;96066.66;;;3.38;100.00
7614;BME280;3848;42.016;23.098;2023-01-27T12:57:18;96063.28;;;3.31;100.00
7614;BME280;3848;42.016;23.098;2023-01-27T12:59:48;96059.97;;;3.54;100.00
7614;BME280;3848;42.016;23.098;2023-01-27T13:02:18;96065.03;;;3.60;100.00
7614;BME280;3848;42.016;23.098;2023-01-27T13:04:50;96015.59;;;3.27;100.00
7614;BME280;3848;42.016;23.098;2023-01-27T13:07:21;96061.69;;;3.62;100.00
7614;BME280;3848;42.016;23.098;2023-01-27T13:09:53;96072.59;;;3.77;100.00
7614;BME280;3848;42.016;23.098;2023-01-27T13:12:24;96073.41;;;3.70;100.00
7614;BME280;3848;42.016;23.098;2023-01-27T13:14:55;96067.53;;;3.72;100.00
7614;BME280;3848;42.016;23.098;2023-01-27T13:17:35;96079.31;;;3.82;100.00
7614;BME280;3848;42.016;23.098;2023-01-27T13:20:06;96069.25;;;3.87;100.00
7614;BME280;3848;42.016;23.098;2023-01-27T13:22:42;96068.41;;;3.92;100.00
7614;BME280;3848;42.016;23.098;2023-01-27T13:25:17;96059.16;;;3.75;100.00
7614;BME280;3848;42.016;23.098;2023-01-27T13:27:45;96072.59;;;3.78;100.00
7614;BME280;3848;42.016;23.098;2023-01-27T13:30:22;96075.94;;;3.79;100.00
7614;BME280;3848;42.016;23.098;2023-01-27T13:32:56;96068.41;;;3.92;100.00